Cape Sakura — 7JHZ — position and weather

sailwx.info

Track history (hours):
 
Tides and Currents Weather Stations Pressure Air Temp Water Temp Dewpoint Dewpoint Depression Visibility Wind Speed Wind Dir Waves Ship Positions

Cape Sakura

Last reported at 2016-Aug-26 09:25 UTC. Time now 2016-Aug-28 16:40 UTC.
Position S 20°13' E 117°25'.

Length 292 m; draft 17.6 m.

Type: Cargo ship. MMSI: 432786000.

Date/timePositionNaut miles runAvg speedWind from/ knotsBaromVisibWave heightAir tempDewpointWater temp
2016-Aug-26 09:25S 20°13' E 117°25'1110.7
2016-Aug-26 08:25S 20°23' E 117°26'7 7.8
2016-Aug-26 07:32S 20°28' E 117°21'8 8.2
2016-Aug-26 06:31S 20°33' E 117°14'3 1.4
2016-Aug-26 04:10S 20°35' E 117°11'0 0.0
2016-Aug-26 01:22S 20°35' E 117°11'0 0.0
2016-Aug-25 20:16S 20°35' E 117°11'0 0.0
2016-Aug-25 19:22S 20°35' E 117°11'0 0.0
2016-Aug-25 17:10S 20°35' E 117°11'0 0.0
2016-Aug-25 10:22S 20°35' E 117°11'0 0.0
2016-Aug-25 06:28S 20°35' E 117°11'0 0.0
2016-Aug-25 03:16S 20°35' E 117°11'0 0.0
2016-Aug-25 02:10S 20°35' E 117°11'0 0.0
2016-Aug-25 00:28S 20°35' E 117°11'0 0.0
2016-Aug-24 21:29S 20°35' E 117°11'0 0.0
2016-Aug-24 19:04S 20°35' E 117°11'0 0.0
2016-Aug-24 14:16S 20°35' E 117°11'0 0.0
2016-Aug-24 12:28S 20°35' E 117°11'0 0.0
2016-Aug-24 11:16S 20°35' E 117°11'0 0.0
2016-Aug-24 07:03S 20°35' E 117°11'0 0.3
2016-Aug-24 06:31S 20°35' E 117°11'5 2.7
2016-Aug-24 04:30S 20°34' E 117°17'0 0.0
2016-Aug-23 22:30S 20°33' E 117°17'0 0.1
2016-Aug-23 21:30S 20°33' E 117°17'2 2.0
2016-Aug-23 20:29S 20°32' E 117°18'8 8.6
2016-Aug-23 19:33S 20°29' E 117°26'1110.7
2016-Aug-23 18:33S 20°18' E 117°29'7 7.3
2016-Aug-23 17:32S 20°11' E 117°32'  
Track history (hours):
 
Tides and Currents Weather Stations Pressure Air Temp Water Temp Dewpoint Dewpoint Depression Visibility Wind Speed Wind Dir Waves Ship Positions

Cape Sakura

Last reported at 2016-Aug-26 09:25 UTC. Time now 2016-Aug-28 16:40 UTC.
Position S 20°13' E 117°25'.

Length 292 m; draft 17.6 m.

Type: Cargo ship. MMSI: 432786000.

Date/timePositionNaut miles runAvg speedWind from/ knotsBaromVisibWave heightAir tempDewpointWater temp
2016-Aug-26 09:25S 20°13' E 117°25'1110.7
2016-Aug-26 08:25S 20°23' E 117°26'7 7.8
2016-Aug-26 07:32S 20°28' E 117°21'8 8.2
2016-Aug-26 06:31S 20°33' E 117°14'3 1.4
2016-Aug-26 04:10S 20°35' E 117°11'0 0.0
2016-Aug-26 01:22S 20°35' E 117°11'0 0.0
2016-Aug-25 20:16S 20°35' E 117°11'0 0.0
2016-Aug-25 19:22S 20°35' E 117°11'0 0.0
2016-Aug-25 17:10S 20°35' E 117°11'0 0.0
2016-Aug-25 10:22S 20°35' E 117°11'0 0.0
2016-Aug-25 06:28S 20°35' E 117°11'0 0.0
2016-Aug-25 03:16S 20°35' E 117°11'0 0.0
2016-Aug-25 02:10S 20°35' E 117°11'0 0.0
2016-Aug-25 00:28S 20°35' E 117°11'0 0.0
2016-Aug-24 21:29S 20°35' E 117°11'0 0.0
2016-Aug-24 19:04S 20°35' E 117°11'0 0.0
2016-Aug-24 14:16S 20°35' E 117°11'0 0.0
2016-Aug-24 12:28S 20°35' E 117°11'0 0.0
2016-Aug-24 11:16S 20°35' E 117°11'0 0.0
2016-Aug-24 07:03S 20°35' E 117°11'0 0.3
2016-Aug-24 06:31S 20°35' E 117°11'5 2.7
2016-Aug-24 04:30S 20°34' E 117°17'0 0.0
2016-Aug-23 22:30S 20°33' E 117°17'0 0.1
2016-Aug-23 21:30S 20°33' E 117°17'2 2.0
2016-Aug-23 20:29S 20°32' E 117°18'8 8.6
2016-Aug-23 19:33S 20°29' E 117°26'1110.7
2016-Aug-23 18:33S 20°18' E 117°29'7 7.3
2016-Aug-23 17:32S 20°11' E 117°32'  

Dump ship's entire track history